オスロ の空港の天気 - METARとTAF

オスロ空港 ( ENGM / OSL ) - ノルウェー アーケシュフース県オスロ
飛行場実況気象(Metar)
観測時間05/28 02:20 CEST (05/28 00:20 UTC)
風向・風速北西 3m/s
視程10km以上
天気現象
なし
気温8℃
湿度53%
気圧1030hPa
METARENGM 280020Z 32005KT 280V030 CAVOK 08/M01 Q1030
過去の天気等 Google飛行場航空写真 Wunderground天気予報

過去48時間のMETAR

飛行場予報(TAF)
発表時間: -
TAF ENGM 2800/2824 32007KT CAVOK